createdAt,value
2022-09-15T00:01:19.290Z,27.67
2022-09-15T00:03:47.482Z,30.57
2022-09-15T00:06:15.774Z,32.07
2022-09-15T00:08:43.807Z,34.87
2022-09-15T00:11:13.308Z,30.23
2022-09-15T00:13:41.756Z,23.27
2022-09-15T00:16:14.649Z,26.07
2022-09-15T00:18:45.168Z,26.97
2022-09-15T00:21:14.662Z,29.00
2022-09-15T00:23:42.321Z,21.37
2022-09-15T00:26:13.895Z,27.43
2022-09-15T00:28:41.498Z,26.93
2022-09-15T00:31:11.234Z,25.53
2022-09-15T00:33:39.155Z,26.23
2022-09-15T00:36:10.250Z,26.03
2022-09-15T00:38:38.961Z,26.70
2022-09-15T00:41:08.381Z,25.60
2022-09-15T00:43:46.297Z,30.17
2022-09-15T00:46:14.566Z,25.20
2022-09-15T00:48:45.414Z,26.07
2022-09-15T00:51:17.755Z,25.60
2022-09-15T00:53:47.514Z,33.23
2022-09-15T00:56:15.278Z,22.13
2022-09-15T00:58:45.589Z,23.80
2022-09-15T01:01:13.925Z,26.30
2022-09-15T01:03:42.389Z,25.87
2022-09-15T01:06:26.653Z,22.33
2022-09-15T01:08:58.145Z,23.53
2022-09-15T01:11:25.734Z,23.23
2022-09-15T01:13:53.573Z,24.00
2022-09-15T01:16:27.622Z,24.13
2022-09-15T01:19:00.460Z,23.30
2022-09-15T01:21:36.562Z,25.20
2022-09-15T01:24:40.152Z,21.03
2022-09-15T01:27:40.614Z,25.53
2022-09-15T01:30:15.363Z,21.30
2022-09-15T01:33:04.178Z,21.23
2022-09-15T01:35:36.966Z,24.60
2022-09-15T01:38:09.559Z,24.37
2022-09-15T01:40:40.831Z,24.10
2022-09-15T01:43:10.530Z,21.67
2022-09-15T01:45:40.614Z,18.57
2022-09-15T01:48:09.025Z,28.03
2022-09-15T01:50:38.854Z,28.50
2022-09-15T01:53:10.795Z,21.50
2022-09-15T01:55:42.091Z,19.53
2022-09-15T01:58:10.096Z,22.47
2022-09-15T02:00:43.948Z,18.70
2022-09-15T02:03:17.244Z,20.77
2022-09-15T02:05:48.773Z,21.27
2022-09-15T02:08:25.148Z,22.77
2022-09-15T02:10:59.412Z,21.47
2022-09-15T02:13:39.127Z,18.17
2022-09-15T02:16:15.261Z,19.97
2022-09-15T02:18:45.210Z,25.57
2022-09-15T02:21:18.169Z,18.47
2022-09-15T02:23:51.142Z,23.20
2022-09-15T02:26:20.939Z,17.73
2022-09-15T02:28:50.493Z,16.00
2022-09-15T02:31:21.626Z,14.97
2022-09-15T02:33:52.890Z,25.37
2022-09-15T02:36:22.203Z,18.27
2022-09-15T02:38:54.131Z,15.30
2022-09-15T02:41:22.124Z,15.37
2022-09-15T02:43:50.244Z,24.43
2022-09-15T02:46:21.138Z,17.10
2022-09-15T02:48:48.969Z,17.20
2022-09-15T02:51:17.959Z,18.83
2022-09-15T02:53:46.251Z,13.17
2022-09-15T02:56:16.502Z,19.43
2022-09-15T02:58:44.103Z,15.00
2022-09-15T03:01:14.978Z,16.43
2022-09-15T03:03:45.135Z,15.53
2022-09-15T03:06:21.220Z,20.83
2022-09-15T03:08:51.455Z,19.83
2022-09-15T03:11:20.286Z,21.43
2022-09-15T03:13:48.351Z,16.00
2022-09-15T03:16:17.049Z,18.77
2022-09-15T03:18:46.005Z,17.73
2022-09-15T03:21:15.454Z,16.13
2022-09-15T03:23:43.403Z,17.70
2022-09-15T03:26:11.275Z,15.17
2022-09-15T03:28:39.826Z,19.07
2022-09-15T03:31:09.276Z,19.13
2022-09-15T03:33:37.414Z,24.13
2022-09-15T03:36:07.495Z,21.97
2022-09-15T03:38:35.111Z,26.70
2022-09-15T03:41:04.366Z,16.93
2022-09-15T03:43:32.858Z,58.93
2022-09-15T03:46:00.894Z,56.77
2022-09-15T03:48:30.807Z,43.47
2022-09-15T03:50:58.412Z,32.27
2022-09-15T03:53:27.979Z,22.50
2022-09-15T03:55:55.625Z,12.53
2022-09-15T03:58:23.294Z,14.10
2022-09-15T04:00:50.926Z,13.17
2022-09-15T04:03:18.949Z,17.83
2022-09-15T04:05:46.454Z,14.47
2022-09-15T04:08:14.228Z,13.80
2022-09-15T04:10:43.390Z,19.73
2022-09-15T04:13:11.003Z,16.80
2022-09-15T04:15:38.529Z,16.50
2022-09-15T04:18:06.849Z,19.30
2022-09-15T04:20:34.466Z,18.10
2022-09-15T04:23:02.101Z,22.70
2022-09-15T04:25:29.786Z,18.13
2022-09-15T04:27:58.823Z,23.33
2022-09-15T04:30:26.601Z,20.37
2022-09-15T04:32:54.189Z,18.93
2022-09-15T04:35:21.973Z,24.70
2022-09-15T04:37:50.047Z,19.10
2022-09-15T04:40:17.783Z,19.47
2022-09-15T04:42:45.408Z,20.33
2022-09-15T04:45:14.660Z,22.27
2022-09-15T04:47:42.261Z,20.60
2022-09-15T04:50:10.717Z,22.93
2022-09-15T04:52:38.827Z,23.77
2022-09-15T04:55:06.672Z,24.97
2022-09-15T04:57:34.562Z,21.17
2022-09-15T05:00:04.672Z,25.23
2022-09-15T05:02:34.317Z,24.30
2022-09-15T05:05:02.117Z,25.03
2022-09-15T05:07:29.953Z,20.43
2022-09-15T05:09:57.767Z,25.57
2022-09-15T05:12:25.309Z,26.07
2022-09-15T05:14:53.022Z,24.57
2022-09-15T05:17:23.992Z,26.47
2022-09-15T05:19:55.297Z,24.40
2022-09-15T05:22:24.006Z,22.87
2022-09-15T05:24:52.185Z,26.17
2022-09-15T05:27:20.049Z,34.77
2022-09-15T05:29:47.569Z,34.00
2022-09-15T05:32:15.490Z,26.97
2022-09-15T05:34:43.106Z,29.37
2022-09-15T05:37:12.033Z,29.53
2022-09-15T05:39:41.012Z,23.57
2022-09-15T05:42:09.685Z,24.33
2022-09-15T05:44:37.665Z,22.43
2022-09-15T05:47:05.658Z,22.23
2022-09-15T05:49:33.899Z,23.70
2022-09-15T05:52:01.958Z,20.47
2022-09-15T05:54:30.902Z,29.00
2022-09-15T05:56:58.714Z,23.07
2022-09-15T05:59:26.282Z,24.43
2022-09-15T06:01:54.010Z,25.23
2022-09-15T06:04:21.540Z,26.77
2022-09-15T06:06:49.149Z,23.80
2022-09-15T06:09:16.837Z,31.90
2022-09-15T06:11:45.885Z,30.90
2022-09-15T06:14:14.356Z,33.20
2022-09-15T06:16:41.976Z,29.30
2022-09-15T06:19:09.974Z,34.70
2022-09-15T06:21:37.562Z,27.07
2022-09-15T06:24:06.935Z,34.97
2022-09-15T06:26:35.035Z,38.07
2022-09-15T06:29:07.107Z,30.73
2022-09-15T06:31:35.662Z,32.27
2022-09-15T06:34:03.983Z,33.57
2022-09-15T06:36:33.827Z,31.93
2022-09-15T06:39:01.482Z,29.97
2022-09-15T06:41:42.630Z,32.93
2022-09-15T06:44:18.836Z,29.60
2022-09-15T06:46:47.000Z,30.60
2022-09-15T06:49:14.816Z,27.80
2022-09-15T06:51:42.424Z,33.87
2022-09-15T06:54:10.021Z,27.37
2022-09-15T06:56:38.403Z,32.03
2022-09-15T06:59:06.613Z,34.67
2022-09-15T07:01:35.880Z,30.10
2022-09-15T07:04:06.125Z,29.50
2022-09-15T07:06:34.870Z,33.37
2022-09-15T07:09:02.694Z,35.60
2022-09-15T07:11:30.666Z,31.43
2022-09-15T07:13:58.742Z,29.47
2022-09-15T07:16:27.103Z,27.23
2022-09-15T07:18:57.773Z,30.07
2022-09-15T07:21:25.590Z,30.47
2022-09-15T07:23:53.463Z,29.60
2022-09-15T07:26:23.062Z,26.30
2022-09-15T07:28:52.482Z,35.00
2022-09-15T07:31:22.913Z,33.73
2022-09-15T07:33:50.907Z,34.37
2022-09-15T07:36:20.513Z,24.30
2022-09-15T07:38:50.231Z,30.53
2022-09-15T07:41:19.347Z,29.87
2022-09-15T07:43:47.701Z,33.47
2022-09-15T07:46:15.881Z,30.77
2022-09-15T07:48:45.374Z,27.90
2022-09-15T07:51:13.968Z,31.30
2022-09-15T07:53:43.833Z,24.70
2022-09-15T07:56:11.795Z,27.30
2022-09-15T07:58:39.658Z,32.57
2022-09-15T08:01:11.098Z,27.63
2022-09-15T08:03:41.329Z,27.37
2022-09-15T08:06:10.022Z,26.50
2022-09-15T08:08:38.626Z,25.03
2022-09-15T08:11:16.373Z,23.13
2022-09-15T08:13:46.324Z,26.70
2022-09-15T08:16:15.649Z,27.90
2022-09-15T08:18:44.096Z,26.17
2022-09-15T08:21:14.067Z,23.87
2022-09-15T08:23:42.125Z,21.23
2022-09-15T08:26:14.331Z,21.77
2022-09-15T08:28:42.708Z,17.73
2022-09-15T08:31:12.525Z,22.67
2022-09-15T08:33:45.278Z,29.07
2022-09-15T08:36:13.754Z,22.63
2022-09-15T08:38:42.167Z,22.10
2022-09-15T08:41:15.669Z,22.43
2022-09-15T08:43:47.187Z,21.33
2022-09-15T08:46:17.922Z,24.43
2022-09-15T08:48:50.300Z,19.63
2022-09-15T08:51:22.687Z,16.43
2022-09-15T08:53:54.080Z,20.80
2022-09-15T08:56:23.230Z,17.17
2022-09-15T08:58:51.149Z,16.77
2022-09-15T09:01:27.903Z,14.93
2022-09-15T09:04:09.247Z,23.87
2022-09-15T09:06:41.732Z,18.07
2022-09-15T09:09:13.763Z,19.30
2022-09-15T09:11:55.842Z,23.40
2022-09-15T09:14:30.115Z,23.43
2022-09-15T09:17:09.718Z,17.50
2022-09-15T09:19:59.111Z,16.30
2022-09-15T09:22:29.434Z,20.20
2022-09-15T09:24:59.261Z,15.43
2022-09-15T09:27:30.650Z,13.20
2022-09-15T09:30:01.390Z,16.87
2022-09-15T09:32:35.337Z,15.07
2022-09-15T09:35:05.150Z,13.33
2022-09-15T09:37:34.249Z,12.27
2022-09-15T09:40:02.616Z,10.53
2022-09-15T09:42:33.289Z,14.07
2022-09-15T09:45:00.979Z,12.33
2022-09-15T09:47:29.492Z,10.13
2022-09-15T09:49:57.039Z,6.87
2022-09-15T09:52:35.226Z,9.47
2022-09-15T09:55:03.459Z,10.30
2022-09-15T09:57:33.126Z,10.90
2022-09-15T10:00:00.767Z,14.97
2022-09-15T10:02:28.700Z,8.30
2022-09-15T10:05:17.104Z,10.17
2022-09-15T10:07:44.941Z,9.23
2022-09-15T10:10:21.013Z,8.13
2022-09-15T10:12:51.343Z,7.10
2022-09-15T10:15:24.727Z,7.20
2022-09-15T10:17:53.664Z,11.33
2022-09-15T10:20:25.523Z,9.70
2022-09-15T10:22:53.385Z,6.30
2022-09-15T10:25:55.072Z,6.70
2022-09-15T10:28:25.894Z,5.13
2022-09-15T10:31:01.781Z,5.30
2022-09-15T10:33:31.031Z,6.00
2022-09-15T10:36:03.403Z,4.20
2022-09-15T10:38:35.680Z,5.03
2022-09-15T10:41:13.001Z,8.63
2022-09-15T10:43:48.502Z,7.27
2022-09-15T10:46:23.859Z,6.03
2022-09-15T10:49:06.888Z,10.03
2022-09-15T10:51:46.398Z,7.90
2022-09-15T10:54:40.220Z,2.17
2022-09-15T10:57:12.738Z,6.20
2022-09-15T10:59:47.198Z,5.37
2022-09-15T11:02:42.451Z,7.90
2022-09-15T11:05:35.658Z,7.43
2022-09-15T11:08:27.728Z,6.40
2022-09-15T11:11:01.787Z,5.33
2022-09-15T11:13:35.176Z,5.83
2022-09-15T11:16:21.511Z,6.30
2022-09-15T11:19:10.309Z,5.73
2022-09-15T11:21:40.006Z,4.03
2022-09-15T11:24:25.142Z,4.83
2022-09-15T11:26:54.783Z,8.57
2022-09-15T11:29:26.722Z,6.53
2022-09-15T11:31:59.407Z,10.30
2022-09-15T11:34:31.085Z,6.17
2022-09-15T11:37:03.292Z,5.73
2022-09-15T11:39:34.424Z,7.90
2022-09-15T11:42:05.547Z,4.90
2022-09-15T11:44:35.300Z,6.57
2022-09-15T11:47:15.666Z,6.80
2022-09-15T11:49:46.704Z,3.03
2022-09-15T11:52:37.558Z,4.63
2022-09-15T11:55:15.671Z,4.87
2022-09-15T11:57:47.278Z,4.73
2022-09-15T12:00:15.939Z,5.70
2022-09-15T12:02:48.398Z,2.13
2022-09-15T12:05:19.860Z,6.07
2022-09-15T12:07:51.551Z,11.77
2022-09-15T12:10:21.693Z,2.33
2022-09-15T12:12:51.455Z,3.43
2022-09-15T12:15:27.006Z,6.27
2022-09-15T12:18:06.687Z,7.30
2022-09-15T12:20:53.018Z,4.77
2022-09-15T12:23:24.915Z,7.33
2022-09-15T12:26:05.157Z,7.40
2022-09-15T12:28:40.033Z,5.03
2022-09-15T12:31:32.572Z,7.13
2022-09-15T12:34:03.510Z,5.33
2022-09-15T12:36:40.106Z,3.47
2022-09-15T12:39:31.261Z,8.17
2022-09-15T12:42:09.592Z,5.27
2022-09-15T12:44:38.696Z,3.23
2022-09-15T12:47:16.600Z,4.33
2022-09-15T12:49:47.979Z,6.77
2022-09-15T12:52:15.999Z,8.00
2022-09-15T12:54:45.291Z,7.00
2022-09-15T12:57:20.887Z,5.60
2022-09-15T12:59:48.610Z,2.13
2022-09-15T13:02:42.442Z,3.97
2022-09-15T13:05:12.876Z,6.50
2022-09-15T13:07:57.476Z,6.07
2022-09-15T13:10:34.746Z,5.90
2022-09-15T13:13:28.789Z,7.23
2022-09-15T13:15:59.139Z,6.43
2022-09-15T13:18:27.149Z,6.63
2022-09-15T13:21:01.087Z,4.37
2022-09-15T13:23:30.024Z,3.67
2022-09-15T13:25:59.142Z,6.33
2022-09-15T13:28:27.393Z,6.00
2022-09-15T13:31:05.099Z,4.83
2022-09-15T13:39:50.031Z,4.70
2022-09-15T13:42:31.815Z,4.87
2022-09-15T13:45:23.435Z,7.23
2022-09-15T13:48:15.774Z,4.57
2022-09-15T13:50:48.262Z,8.43
2022-09-15T13:53:37.116Z,6.17
2022-09-15T13:56:08.931Z,7.20
2022-09-15T14:01:25.612Z,10.00
2022-09-15T14:03:54.688Z,5.17
2022-09-15T14:06:25.007Z,8.67
2022-09-15T14:08:56.642Z,6.33
2022-09-15T14:11:28.191Z,9.40
2022-09-15T14:13:56.992Z,7.23
2022-09-15T14:16:33.742Z,10.13
2022-09-15T14:19:03.794Z,5.90
2022-09-15T14:21:33.381Z,5.43
2022-09-15T14:24:06.345Z,5.67
2022-09-15T14:26:35.693Z,5.90
2022-09-15T14:29:05.736Z,6.47
2022-09-15T14:31:35.604Z,8.77
2022-09-15T14:34:03.824Z,8.87
2022-09-15T14:36:32.801Z,7.50
2022-09-15T14:39:19.707Z,6.33
2022-09-15T14:41:48.411Z,4.23
2022-09-15T14:47:21.174Z,4.67
2022-09-15T14:49:49.153Z,6.00
2022-09-15T14:52:25.218Z,7.03
2022-09-15T14:54:58.323Z,5.60
2022-09-15T14:57:30.831Z,7.33
2022-09-15T15:00:01.465Z,6.40
2022-09-15T15:02:33.701Z,3.67
2022-09-15T15:05:07.218Z,4.90
2022-09-15T15:07:38.489Z,3.40
2022-09-15T15:10:16.831Z,3.33
2022-09-15T15:12:45.849Z,3.60
2022-09-15T15:15:14.978Z,2.57
2022-09-15T15:17:45.155Z,1.63
2022-09-15T15:20:15.926Z,3.23
2022-09-15T15:22:45.737Z,6.37
2022-09-15T15:25:27.753Z,7.63
2022-09-15T15:27:57.655Z,7.20
2022-09-15T15:30:46.715Z,5.20
2022-09-15T15:33:21.216Z,4.77
2022-09-15T15:36:02.305Z,4.23
2022-09-15T15:38:30.094Z,4.13
2022-09-15T15:41:03.908Z,3.00
2022-09-15T15:43:31.735Z,2.30
2022-09-15T15:46:01.761Z,2.40
2022-09-15T15:48:35.448Z,6.33
2022-09-15T15:51:06.520Z,4.70
2022-09-15T15:53:34.382Z,3.20
2022-09-15T15:56:03.914Z,4.43
2022-09-15T15:58:31.516Z,1.07
2022-09-15T16:00:59.328Z,2.47
2022-09-15T16:03:27.491Z,3.47
2022-09-15T16:05:58.650Z,3.13
2022-09-15T16:08:28.879Z,3.90
2022-09-15T16:10:56.622Z,1.90
2022-09-15T16:13:26.116Z,6.27
2022-09-15T16:15:54.297Z,3.83
2022-09-15T16:18:22.480Z,6.37
2022-09-15T16:20:50.147Z,3.00
2022-09-15T16:23:20.035Z,4.27
2022-09-15T16:25:50.354Z,3.13
2022-09-15T16:28:17.921Z,3.33
2022-09-15T16:30:47.780Z,5.00
2022-09-15T16:33:19.763Z,3.30
2022-09-15T16:35:51.062Z,2.73
2022-09-15T16:38:19.617Z,6.23
2022-09-15T16:40:47.505Z,3.30
2022-09-15T16:43:18.280Z,3.07
2022-09-15T16:45:47.603Z,3.83
2022-09-15T16:48:15.552Z,5.03
2022-09-15T16:53:33.805Z,4.43
2022-09-15T16:56:01.498Z,5.67
2022-09-15T16:58:29.756Z,2.97
2022-09-15T17:00:58.838Z,12.40
2022-09-15T17:03:28.048Z,6.63
2022-09-15T17:05:57.337Z,4.67
2022-09-15T17:08:29.809Z,3.17
2022-09-15T17:10:57.853Z,6.00
2022-09-15T17:13:29.571Z,5.43
2022-09-15T17:15:59.747Z,3.90
2022-09-15T17:18:27.934Z,4.40
2022-09-15T17:20:55.809Z,4.27
2022-09-15T17:23:25.170Z,11.27
2022-09-15T17:25:53.753Z,3.37
2022-09-15T17:28:22.707Z,2.77
2022-09-15T17:30:51.425Z,1.10
2022-09-15T17:33:21.901Z,7.80
2022-09-15T17:35:50.237Z,4.53
2022-09-15T17:38:20.358Z,3.10
2022-09-15T17:40:48.736Z,5.40
2022-09-15T17:43:18.477Z,7.20
2022-09-15T17:45:46.523Z,5.93
2022-09-15T17:48:14.085Z,6.67
2022-09-15T17:50:43.651Z,2.73
2022-09-15T17:53:13.334Z,1.47
2022-09-15T17:55:43.302Z,7.27
2022-09-15T17:58:11.283Z,6.93
2022-09-15T18:00:40.271Z,6.00
2022-09-15T18:03:19.329Z,3.27
2022-09-15T18:05:48.599Z,5.80
2022-09-15T18:08:16.483Z,8.53
2022-09-15T18:10:47.086Z,1.27
2022-09-15T18:13:16.486Z,4.93
2022-09-15T18:15:44.438Z,4.53
2022-09-15T18:18:15.215Z,4.70
2022-09-15T18:20:43.397Z,1.87
2022-09-15T18:23:17.657Z,3.10
2022-09-15T18:25:46.545Z,4.47
2022-09-15T18:28:14.227Z,6.40
2022-09-15T18:30:44.556Z,4.40
2022-09-15T18:33:15.010Z,3.20
2022-09-15T18:35:43.954Z,2.03
2022-09-15T18:38:12.686Z,7.37
2022-09-15T18:40:45.263Z,3.40
2022-09-15T18:43:13.016Z,4.13
2022-09-15T18:45:41.400Z,3.10
2022-09-15T18:48:12.657Z,6.47
2022-09-15T18:50:41.631Z,2.30
2022-09-15T18:53:09.742Z,5.67
2022-09-15T18:55:37.557Z,4.40
2022-09-15T18:58:06.880Z,5.23
2022-09-15T19:00:34.812Z,6.90
2022-09-15T19:03:03.857Z,5.30
2022-09-15T19:05:31.622Z,6.23
2022-09-15T19:07:59.776Z,2.13
2022-09-15T19:10:28.171Z,4.07
2022-09-15T19:12:56.816Z,4.40
2022-09-15T19:15:27.831Z,1.57
2022-09-15T19:17:55.814Z,4.87
2022-09-15T19:20:23.552Z,5.90
2022-09-15T19:22:51.636Z,3.53
2022-09-15T19:25:19.594Z,3.20
2022-09-15T19:27:48.009Z,9.67
2022-09-15T19:30:16.131Z,1.97
2022-09-15T19:32:45.265Z,3.97
2022-09-15T19:35:13.065Z,1.60
2022-09-15T19:37:41.785Z,4.83
2022-09-15T19:40:11.815Z,7.47
2022-09-15T19:42:40.349Z,3.00
2022-09-15T19:45:09.789Z,5.47
2022-09-15T19:47:37.985Z,10.40
2022-09-15T19:50:09.111Z,2.90
2022-09-15T19:52:37.039Z,7.00
2022-09-15T19:55:06.639Z,4.80
2022-09-15T19:57:34.335Z,5.63
2022-09-15T20:00:02.021Z,5.13
2022-09-15T20:02:29.655Z,11.73
2022-09-15T20:04:57.230Z,2.33
2022-09-15T20:07:26.177Z,3.60
2022-09-15T20:09:54.082Z,5.33
2022-09-15T20:14:54.123Z,2.33
2022-09-15T20:17:22.034Z,7.43
2022-09-15T20:19:49.614Z,4.33
2022-09-15T20:22:17.466Z,3.87
2022-09-15T20:24:46.395Z,4.17
2022-09-15T20:27:13.967Z,4.50
2022-09-15T20:29:41.517Z,4.50
2022-09-15T20:32:09.130Z,7.60
2022-09-15T20:34:36.781Z,4.87
2022-09-15T20:37:04.700Z,7.10
2022-09-15T20:39:32.379Z,5.43
2022-09-15T20:42:01.771Z,4.57
2022-09-15T20:44:29.446Z,5.07
2022-09-15T20:46:57.001Z,8.60
2022-09-15T20:49:24.678Z,3.77
2022-09-15T20:51:52.383Z,3.33
2022-09-15T20:54:20.323Z,9.43
2022-09-15T20:56:47.861Z,8.37
2022-09-15T20:59:17.165Z,4.10
2022-09-15T21:01:44.716Z,6.87
2022-09-15T21:04:12.390Z,2.37
2022-09-15T21:06:40.930Z,4.90
2022-09-15T21:09:09.188Z,3.97
2022-09-15T21:11:37.110Z,2.17
2022-09-15T21:14:05.038Z,3.40
2022-09-15T21:16:34.783Z,3.00
2022-09-15T21:19:02.521Z,7.77
2022-09-15T21:21:31.557Z,6.00
2022-09-15T21:24:03.438Z,2.43
2022-09-15T21:26:32.602Z,5.00
2022-09-15T21:29:00.608Z,4.17
2022-09-15T21:31:29.345Z,4.43
2022-09-15T21:33:59.209Z,5.17
2022-09-15T21:36:29.445Z,3.63
2022-09-15T21:38:58.199Z,5.50
2022-09-15T21:41:27.529Z,2.80
2022-09-15T21:43:57.998Z,6.33
2022-09-15T21:46:27.842Z,3.97
2022-09-15T21:48:58.805Z,3.27
2022-09-15T21:51:27.895Z,2.63
2022-09-15T21:53:56.790Z,5.73
2022-09-15T21:56:25.044Z,3.80
2022-09-15T21:58:52.718Z,6.97
2022-09-15T22:01:22.219Z,4.93
2022-09-15T22:03:51.462Z,9.63
2022-09-15T22:06:22.476Z,4.77
2022-09-15T22:08:50.082Z,2.73
2022-09-15T22:11:17.680Z,6.50
2022-09-15T22:13:45.597Z,5.37
2022-09-15T22:16:14.779Z,7.90
2022-09-15T22:18:43.009Z,3.57
2022-09-15T22:21:12.623Z,1.93
2022-09-15T22:23:42.018Z,8.90
2022-09-15T22:26:13.157Z,7.33
2022-09-15T22:28:40.863Z,5.83
2022-09-15T22:31:10.368Z,6.10
2022-09-15T22:33:40.846Z,4.17
2022-09-15T22:36:10.782Z,6.33
2022-09-15T22:38:38.767Z,6.53
2022-09-15T22:41:09.933Z,4.93
2022-09-15T22:43:37.841Z,6.47
2022-09-15T22:46:05.818Z,3.00
2022-09-15T22:48:33.832Z,4.43
2022-09-15T22:51:01.977Z,3.40
2022-09-15T22:53:29.526Z,4.27
2022-09-15T22:56:05.510Z,3.40
2022-09-15T22:58:34.704Z,6.83
2022-09-15T23:01:06.499Z,7.40
2022-09-15T23:03:34.103Z,4.87
2022-09-15T23:06:03.086Z,6.87
2022-09-15T23:08:31.644Z,6.30
2022-09-15T23:11:04.617Z,5.03
2022-09-15T23:13:32.155Z,3.50
2022-09-15T23:16:01.195Z,3.40
2022-09-15T23:18:29.093Z,2.90
2022-09-15T23:20:58.080Z,2.23
2022-09-15T23:23:26.146Z,3.83
2022-09-15T23:25:54.125Z,8.30
2022-09-15T23:28:22.471Z,5.33
2022-09-15T23:30:52.696Z,4.07
2022-09-15T23:33:22.439Z,7.23
2022-09-15T23:35:50.287Z,6.10
2022-09-15T23:38:18.077Z,7.67
2022-09-15T23:40:46.447Z,5.10
2022-09-15T23:43:14.720Z,8.20
2022-09-15T23:45:43.015Z,7.40
2022-09-15T23:48:10.912Z,3.87
2022-09-15T23:50:41.257Z,4.30
2022-09-15T23:53:09.243Z,4.27
2022-09-15T23:55:37.660Z,4.97
2022-09-15T23:58:05.943Z,3.87
